createdAt,value
2023-03-27T00:03:31.861Z,1.79
2023-03-27T00:07:31.906Z,0.69
2023-03-27T00:11:32.007Z,1.19
2023-03-27T00:15:31.994Z,1.39
2023-03-27T00:19:32.052Z,0.83
2023-03-27T00:23:32.136Z,0.81
2023-03-27T00:27:32.311Z,1.13
2023-03-27T00:31:32.530Z,1.06
2023-03-27T00:35:32.543Z,0.70
2023-03-27T00:39:32.543Z,0.81
2023-03-27T00:43:32.655Z,1.42
2023-03-27T00:47:32.942Z,0.87
2023-03-27T00:51:32.963Z,1.30
2023-03-27T00:55:33.039Z,1.09
2023-03-27T00:59:33.150Z,0.86
2023-03-27T01:03:33.346Z,0.92
2023-03-27T01:07:33.366Z,1.14
2023-03-27T01:11:33.436Z,1.29
2023-03-27T01:15:33.496Z,0.84
2023-03-27T01:19:33.616Z,0.86
2023-03-27T01:23:35.450Z,1.23
2023-03-27T01:27:34.694Z,1.16
2023-03-27T01:31:33.683Z,0.78
2023-03-27T01:35:33.677Z,0.61
2023-03-27T01:39:33.580Z,0.70
2023-03-27T01:43:33.546Z,0.56
2023-03-27T01:47:33.557Z,0.50
2023-03-27T01:51:33.503Z,0.51
2023-03-27T01:55:33.441Z,0.54
2023-03-27T01:59:33.408Z,0.59
2023-03-27T02:03:33.398Z,0.77
2023-03-27T02:07:33.365Z,0.74
2023-03-27T02:11:33.305Z,0.73
2023-03-27T02:15:33.271Z,0.62
2023-03-27T02:19:33.239Z,0.73
2023-03-27T02:23:33.213Z,0.85
2023-03-27T02:27:33.196Z,0.76
2023-03-27T02:31:34.841Z,0.64
2023-03-27T02:35:33.144Z,0.90
2023-03-27T02:39:33.086Z,0.79
2023-03-27T02:43:33.073Z,0.95
2023-03-27T02:47:33.069Z,0.55
2023-03-27T02:51:33.024Z,0.63
2023-03-27T02:55:33.105Z,0.60
2023-03-27T02:59:33.180Z,0.73
2023-03-27T03:03:33.216Z,0.77
2023-03-27T03:07:33.254Z,0.94
2023-03-27T03:11:33.297Z,0.93
2023-03-27T03:15:33.332Z,0.78
2023-03-27T03:19:33.388Z,0.84
2023-03-27T03:23:33.331Z,0.71
2023-03-27T03:27:33.326Z,0.65
2023-03-27T03:31:33.344Z,0.73
2023-03-27T03:35:33.373Z,0.56
2023-03-27T03:39:33.325Z,0.52
2023-03-27T03:43:33.362Z,0.57
2023-03-27T03:47:33.362Z,0.65
2023-03-27T03:51:33.391Z,0.73
2023-03-27T03:55:33.430Z,0.80
2023-03-27T03:59:33.515Z,0.95
2023-03-27T04:03:33.694Z,0.91
2023-03-27T04:07:33.735Z,0.91
2023-03-27T04:11:33.815Z,0.94
2023-03-27T04:15:33.930Z,0.87
2023-03-27T04:19:34.026Z,1.06
2023-03-27T04:23:34.168Z,1.08
2023-03-27T04:27:34.314Z,1.09
2023-03-27T04:31:34.631Z,1.00
2023-03-27T04:35:34.569Z,0.80
2023-03-27T04:39:34.651Z,0.88
2023-03-27T04:43:34.793Z,0.82
2023-03-27T04:47:35.150Z,1.14
2023-03-27T04:51:35.137Z,1.25
2023-03-27T04:55:35.276Z,1.46
2023-03-27T04:59:35.417Z,1.20
2023-03-27T05:03:35.600Z,1.29
2023-03-27T05:07:35.657Z,1.27
2023-03-27T05:11:35.802Z,1.57
2023-03-27T05:15:35.858Z,2.34
2023-03-27T05:19:36.011Z,1.85
2023-03-27T05:23:36.106Z,2.24
2023-03-27T05:27:36.251Z,2.67
2023-03-27T05:31:36.442Z,6.18
2023-03-27T05:35:36.494Z,14.12
2023-03-27T05:39:36.588Z,28.97
2023-03-27T05:43:36.733Z,52.21
2023-03-27T05:47:36.983Z,79.30
2023-03-27T05:51:37.185Z,45.02
2023-03-27T05:55:37.306Z,1.69
2023-03-27T05:59:37.399Z,4.16
2023-03-27T06:03:37.630Z,18.32
2023-03-27T06:07:37.557Z,38.23
2023-03-27T06:11:37.743Z,42.87
2023-03-27T06:15:37.962Z,36.95
2023-03-27T06:19:39.162Z,31.72
2023-03-27T06:23:38.133Z,35.06
2023-03-27T06:27:38.214Z,46.50
2023-03-27T06:31:38.809Z,28.68
2023-03-27T06:35:38.720Z,27.81
2023-03-27T06:39:38.686Z,53.64
2023-03-27T06:43:38.422Z,74.97
2023-03-27T06:47:44.448Z,6.22
2023-03-27T06:51:39.469Z,1.95
2023-03-27T06:55:38.705Z,4.65
2023-03-27T06:59:38.672Z,1.02
2023-03-27T07:03:38.514Z,1.13
2023-03-27T07:07:41.058Z,0.60
2023-03-27T07:11:38.622Z,0.64
2023-03-27T07:15:38.544Z,1.20
2023-03-27T07:19:38.551Z,0.73
2023-03-27T07:23:38.699Z,0.64
2023-03-27T07:27:38.447Z,1.36
2023-03-27T07:35:38.734Z,0.66
2023-03-27T07:39:38.318Z,0.88
2023-03-27T07:43:38.319Z,0.92
2023-03-27T07:47:38.263Z,1.22
2023-03-27T07:51:38.221Z,4.64
2023-03-27T07:55:38.205Z,3.97
2023-03-27T07:59:38.164Z,2.75
2023-03-27T08:03:38.251Z,2.23
2023-03-27T08:07:38.301Z,2.93
2023-03-27T08:11:38.527Z,2.51
2023-03-27T08:15:38.736Z,1.87
2023-03-27T08:19:39.212Z,1.10
2023-03-27T08:23:39.073Z,0.57
2023-03-27T08:27:39.202Z,10.19
2023-03-27T08:31:39.332Z,42.42
2023-03-27T08:35:39.436Z,66.86
2023-03-27T08:39:39.719Z,77.02
2023-03-27T08:43:39.720Z,92.39
2023-03-27T08:47:39.869Z,99.31
2023-03-27T08:51:39.954Z,82.41
2023-03-27T08:55:40.245Z,90.76
2023-03-27T08:59:39.866Z,75.13
2023-03-27T09:03:39.958Z,78.72
2023-03-27T09:07:40.223Z,78.80
2023-03-27T09:11:39.777Z,41.12
2023-03-27T09:15:39.846Z,95.77
2023-03-27T09:19:39.723Z,100.54
2023-03-27T09:23:39.724Z,92.21
2023-03-27T09:27:39.707Z,32.61
2023-03-27T09:31:39.765Z,39.55
2023-03-27T09:35:40.240Z,73.65
2023-03-27T09:39:39.964Z,92.67
2023-03-27T09:43:40.214Z,95.75
2023-03-27T09:47:40.275Z,90.51
2023-03-27T09:51:40.296Z,80.22
2023-03-27T09:55:41.193Z,61.45
2023-03-27T09:59:40.447Z,72.68
2023-03-27T10:03:40.566Z,54.38
2023-03-27T10:07:40.642Z,67.89
2023-03-27T10:11:40.737Z,64.19
2023-03-27T10:15:40.679Z,42.93
2023-03-27T10:19:40.766Z,23.05
2023-03-27T10:23:41.328Z,18.75
2023-03-27T10:27:41.233Z,24.07
2023-03-27T10:31:41.260Z,25.53
2023-03-27T10:35:41.241Z,63.16
2023-03-27T10:39:41.296Z,51.76
2023-03-27T10:43:41.315Z,51.73
2023-03-27T10:47:41.316Z,48.36
2023-03-27T10:51:46.612Z,50.85
2023-03-27T10:55:42.235Z,47.01
2023-03-27T10:59:42.130Z,43.70
2023-03-27T11:03:41.423Z,27.94
2023-03-27T11:07:41.585Z,34.05
2023-03-27T11:11:41.795Z,35.72
2023-03-27T11:15:42.332Z,17.20
2023-03-27T11:19:41.908Z,22.75
2023-03-27T11:23:42.242Z,13.18
2023-03-27T11:27:41.994Z,5.97
2023-03-27T11:31:42.102Z,7.81
2023-03-27T11:35:42.150Z,5.26
2023-03-27T11:39:42.244Z,2.97
2023-03-27T11:43:42.383Z,10.10
2023-03-27T11:47:42.684Z,10.73
2023-03-27T11:51:42.585Z,18.81
2023-03-27T11:55:42.662Z,36.33
2023-03-27T11:59:42.740Z,22.17
2023-03-27T12:03:42.762Z,34.12
2023-03-27T12:07:47.653Z,38.38
2023-03-27T12:11:43.789Z,19.71
2023-03-27T12:15:42.664Z,43.64
2023-03-27T12:19:42.788Z,38.94
2023-03-27T12:23:42.716Z,37.97
2023-03-27T12:27:42.973Z,37.34
2023-03-27T12:31:42.907Z,36.76
2023-03-27T12:35:42.887Z,35.52
2023-03-27T12:39:42.809Z,36.40
2023-03-27T12:43:42.804Z,34.69
2023-03-27T12:47:42.849Z,31.21
2023-03-27T12:51:42.708Z,32.81
2023-03-27T12:55:42.917Z,30.83
2023-03-27T12:59:43.067Z,29.96
2023-03-27T13:03:43.189Z,28.83
2023-03-27T13:07:43.281Z,28.25
2023-03-27T13:11:43.294Z,27.19
2023-03-27T13:15:43.222Z,26.44
2023-03-27T13:19:43.219Z,27.02
2023-03-27T13:23:43.221Z,26.06
2023-03-27T13:27:43.246Z,25.73
2023-03-27T13:31:43.401Z,26.00
2023-03-27T13:35:43.364Z,24.97
2023-03-27T13:39:43.345Z,23.74
2023-03-27T15:15:45.728Z,69.39
2023-03-27T15:19:45.813Z,82.26
2023-03-27T15:23:45.675Z,65.77
2023-03-27T15:27:45.635Z,112.90
2023-03-27T15:32:06.287Z,0.50
2023-03-27T15:33:06.361Z,0.50
2023-03-27T15:34:06.292Z,0.50
2023-03-27T15:35:06.264Z,0.50
2023-03-27T15:36:06.325Z,0.50
2023-03-27T15:37:06.277Z,0.58
2023-03-27T15:38:06.263Z,0.38
2023-03-27T15:39:06.241Z,0.54
2023-03-27T15:40:06.243Z,0.69
2023-03-27T15:41:06.250Z,0.60
2023-03-27T15:42:06.230Z,0.64
2023-03-27T15:43:06.216Z,0.67
2023-03-27T15:44:06.205Z,0.83
2023-03-27T15:45:06.220Z,0.94
2023-03-27T15:46:06.273Z,0.72
2023-03-27T15:47:06.225Z,0.76
2023-03-27T15:48:06.238Z,0.91
2023-03-27T15:49:06.190Z,1.11
2023-03-27T15:50:06.165Z,0.99
2023-03-27T15:51:06.202Z,1.08
2023-03-27T15:52:06.151Z,0.91
2023-03-27T15:53:06.149Z,0.92
2023-03-27T15:54:06.161Z,1.62
2023-03-27T15:55:06.150Z,1.73
2023-03-27T15:56:06.156Z,1.96
2023-03-27T15:57:10.791Z,2.54
2023-03-27T15:58:07.132Z,2.11
2023-03-27T15:59:06.156Z,1.23
2023-03-27T16:00:06.119Z,0.40
2023-03-27T16:01:18.015Z,0.34
2023-03-27T16:02:07.167Z,0.34
2023-03-27T16:03:06.216Z,0.34
2023-03-27T16:04:06.195Z,0.34
2023-03-27T16:05:06.137Z,0.34
2023-03-27T16:06:06.113Z,0.34
2023-03-27T16:07:06.081Z,0.34
2023-03-27T16:08:06.073Z,0.34
2023-03-27T16:09:06.077Z,0.34
2023-03-27T16:10:06.061Z,0.34
2023-03-27T16:11:06.066Z,0.34
2023-03-27T16:12:06.049Z,0.34
2023-03-27T16:13:06.039Z,0.34
2023-03-27T16:14:06.062Z,0.34
2023-03-27T16:15:08.403Z,0.34
2023-03-27T16:16:06.317Z,0.34
2023-03-27T16:17:06.286Z,0.34
2023-03-27T16:18:06.408Z,0.34
2023-03-27T16:19:06.391Z,0.34
2023-03-27T16:20:06.421Z,0.34
2023-03-27T16:21:06.808Z,0.48
2023-03-27T16:22:06.541Z,0.64
2023-03-27T16:23:06.568Z,0.91
2023-03-27T16:24:06.618Z,1.58
2023-03-27T16:25:06.666Z,1.54
2023-03-27T16:26:06.703Z,2.14
2023-03-27T16:27:06.772Z,3.19
2023-03-27T16:28:06.838Z,3.12
2023-03-27T16:29:06.892Z,4.18
2023-03-27T16:30:06.945Z,4.60
2023-03-27T16:31:07.015Z,6.78
2023-03-27T16:32:07.059Z,8.76
2023-03-27T16:33:07.176Z,7.85
2023-03-27T16:34:07.124Z,8.60
2023-03-27T16:35:07.410Z,11.18
2023-03-27T16:36:07.162Z,12.55
2023-03-27T16:37:07.101Z,12.76
2023-03-27T16:38:07.097Z,16.68
2023-03-27T16:39:07.146Z,20.51
2023-03-27T16:40:07.095Z,11.85
2023-03-27T16:41:07.100Z,9.58
2023-03-27T16:42:07.107Z,9.80
2023-03-27T16:43:07.123Z,11.73
2023-03-27T16:44:07.154Z,10.23
2023-03-27T16:45:07.195Z,5.53
2023-03-27T16:46:07.265Z,6.62
2023-03-27T16:47:07.274Z,8.39
2023-03-27T16:48:07.337Z,12.30
2023-03-27T16:49:07.323Z,15.29
2023-03-27T16:50:11.751Z,21.91
2023-03-27T16:51:07.344Z,19.42
2023-03-27T16:52:07.326Z,17.92
2023-03-27T16:53:07.314Z,16.96
2023-03-27T16:54:07.338Z,15.49
2023-03-27T16:55:07.776Z,17.92
2023-03-27T16:56:07.309Z,23.14
2023-03-27T16:57:07.309Z,31.36
2023-03-27T16:58:07.281Z,30.58
2023-03-27T16:59:07.274Z,34.09
2023-03-27T17:00:07.259Z,32.51
2023-03-27T17:01:07.308Z,34.24
2023-03-27T17:02:07.271Z,35.82
2023-03-27T17:03:07.309Z,37.56
2023-03-27T17:04:07.249Z,34.09
2023-03-27T17:05:07.279Z,34.30
2023-03-27T17:06:07.245Z,30.83
2023-03-27T17:07:07.242Z,20.20
2023-03-27T17:08:07.527Z,14.21
2023-03-27T17:09:07.237Z,18.10
2023-03-27T17:10:07.237Z,16.24
2023-03-27T17:11:07.207Z,25.09
2023-03-27T17:12:07.204Z,26.22
2023-03-27T17:13:07.195Z,25.66
2023-03-27T17:14:07.197Z,24.65
2023-03-27T17:15:07.203Z,26.79
2023-03-27T17:16:07.188Z,32.03
2023-03-27T17:17:07.200Z,28.19
2023-03-27T17:18:07.192Z,25.52
2023-03-27T17:19:07.164Z,26.70
2023-03-27T17:20:07.168Z,27.46
2023-03-27T17:21:07.158Z,32.97
2023-03-27T17:22:07.140Z,34.68
2023-03-27T17:23:07.136Z,30.76
2023-03-27T17:24:07.138Z,29.10
2023-03-27T17:25:07.112Z,26.50
2023-03-27T17:26:09.107Z,25.45
2023-03-27T17:27:07.116Z,20.75
2023-03-27T17:28:07.122Z,22.11
2023-03-27T17:29:07.095Z,22.78
2023-03-27T17:30:07.108Z,22.21
2023-03-27T17:31:07.112Z,21.00
2023-03-27T17:32:07.114Z,17.74
2023-03-27T17:33:07.193Z,15.22
2023-03-27T17:34:07.077Z,13.93
2023-03-27T17:35:07.062Z,14.08
2023-03-27T17:36:07.059Z,13.89
2023-03-27T17:37:07.093Z,15.92
2023-03-27T17:38:07.045Z,22.15
2023-03-27T17:39:07.043Z,18.36
2023-03-27T17:40:07.059Z,22.25
2023-03-27T17:41:07.029Z,23.91
2023-03-27T17:42:07.036Z,21.50
2023-03-27T17:43:07.026Z,20.83
2023-03-27T17:44:07.642Z,17.78
2023-03-27T17:45:06.998Z,16.32
2023-03-27T17:46:07.024Z,18.50
2023-03-27T17:47:07.000Z,21.35
2023-03-27T17:48:07.093Z,21.92
2023-03-27T17:49:06.995Z,22.56
2023-03-27T17:50:06.973Z,25.15
2023-03-27T17:51:09.749Z,3.98
2023-03-27T17:52:06.962Z,1.68
2023-03-27T17:53:07.020Z,0.75
2023-03-27T17:54:06.954Z,0.56
2023-03-27T17:55:06.944Z,0.58
2023-03-27T17:56:06.926Z,0.61
2023-03-27T17:57:06.980Z,0.69
2023-03-27T17:58:09.747Z,0.52
2023-03-27T17:59:06.920Z,0.38
2023-03-27T18:00:06.903Z,0.47
2023-03-27T18:01:06.908Z,0.55
2023-03-27T18:02:06.957Z,0.66
2023-03-27T18:03:06.942Z,0.98
2023-03-27T18:04:07.024Z,1.82
2023-03-27T18:05:06.871Z,1.99
2023-03-27T18:06:06.876Z,2.41
2023-03-27T18:07:06.873Z,2.95
2023-03-27T18:08:06.871Z,3.34
2023-03-27T18:09:06.851Z,3.32
2023-03-27T18:10:06.834Z,3.45
2023-03-27T18:11:06.894Z,4.48
2023-03-27T18:12:06.822Z,4.82
2023-03-27T18:13:06.840Z,6.22
2023-03-27T18:14:06.823Z,7.75
2023-03-27T18:15:06.814Z,12.76
2023-03-27T18:16:07.364Z,15.15
2023-03-27T18:17:06.787Z,13.29
2023-03-27T18:18:06.832Z,12.58
2023-03-27T18:19:06.789Z,12.02
2023-03-27T18:20:06.804Z,10.95
2023-03-27T18:21:06.760Z,11.89
2023-03-27T18:22:06.771Z,13.40
2023-03-27T18:23:06.800Z,15.35
2023-03-27T18:24:06.772Z,10.55
2023-03-27T18:25:06.741Z,13.58
2023-03-27T18:26:06.749Z,12.97
2023-03-27T18:27:06.743Z,10.43
2023-03-27T18:28:06.724Z,14.92
2023-03-27T18:29:06.722Z,13.93
2023-03-27T18:30:06.715Z,17.12
2023-03-27T18:31:06.727Z,16.10
2023-03-27T18:32:06.688Z,14.22
2023-03-27T18:33:06.751Z,11.69
2023-03-27T18:34:06.700Z,10.49
2023-03-27T18:35:06.689Z,8.70
2023-03-27T18:36:06.694Z,8.04
2023-03-27T18:37:06.702Z,9.13
2023-03-27T18:38:06.652Z,10.48
2023-03-27T18:39:06.724Z,10.41
2023-03-27T18:40:06.649Z,9.30
2023-03-27T18:41:06.653Z,8.52
2023-03-27T18:42:06.653Z,10.23
2023-03-27T18:43:06.669Z,9.90
2023-03-27T18:44:06.619Z,9.07
2023-03-27T18:45:06.636Z,7.24
2023-03-27T18:46:06.665Z,6.52
2023-03-27T18:47:06.597Z,5.91
2023-03-27T18:48:06.633Z,6.40
2023-03-27T18:49:17.327Z,7.54
2023-03-27T18:50:07.580Z,7.58
2023-03-27T18:51:06.592Z,7.78
2023-03-27T18:52:06.558Z,7.81
2023-03-27T18:53:06.558Z,8.02
2023-03-27T18:54:06.556Z,8.13
2023-03-27T18:55:06.558Z,8.47
2023-03-27T18:56:06.557Z,6.80
2023-03-27T18:57:06.587Z,6.19
2023-03-27T18:58:06.554Z,6.45
2023-03-27T18:59:06.511Z,7.38
2023-03-27T19:00:06.509Z,7.40
2023-03-27T19:01:06.532Z,7.66
2023-03-27T19:02:06.552Z,8.36
2023-03-27T19:03:06.694Z,8.49
2023-03-27T19:04:06.487Z,8.20
2023-03-27T19:05:06.490Z,6.82
2023-03-27T19:06:06.548Z,5.74
2023-03-27T19:07:08.359Z,4.37
2023-03-27T19:08:06.585Z,4.76
2023-03-27T19:09:06.622Z,6.21
2023-03-27T19:10:06.663Z,6.55
2023-03-27T19:11:06.675Z,5.12
2023-03-27T19:12:06.710Z,5.16
2023-03-27T19:13:06.745Z,5.87
2023-03-27T19:14:06.797Z,5.68
2023-03-27T19:15:19.229Z,5.17
2023-03-27T19:16:15.265Z,5.17
2023-03-27T19:17:07.865Z,5.19
2023-03-27T19:18:06.845Z,5.34
2023-03-27T19:19:06.826Z,5.57
2023-03-27T19:20:06.814Z,4.76
2023-03-27T19:21:06.805Z,3.52
2023-03-27T19:22:06.780Z,3.75
2023-03-27T19:23:06.789Z,2.94
2023-03-27T19:24:06.787Z,3.19
2023-03-27T19:25:06.777Z,3.27
2023-03-27T19:26:06.758Z,3.65
2023-03-27T19:27:06.753Z,4.75
2023-03-27T19:28:07.766Z,4.75
2023-03-27T19:29:06.762Z,4.78
2023-03-27T19:30:06.748Z,4.87
2023-03-27T19:31:06.801Z,4.28
2023-03-27T19:32:06.722Z,3.88
2023-03-27T19:33:06.801Z,2.65
2023-03-27T19:34:06.722Z,1.95
2023-03-27T19:35:06.712Z,2.51
2023-03-27T19:36:06.742Z,2.54
2023-03-27T19:37:06.704Z,2.31
2023-03-27T19:38:06.701Z,2.11
2023-03-27T19:39:06.702Z,3.03
2023-03-27T19:40:06.700Z,2.81
2023-03-27T19:41:06.687Z,2.18
2023-03-27T19:42:06.748Z,2.14
2023-03-27T19:43:06.778Z,2.42
2023-03-27T19:44:06.813Z,2.49
2023-03-27T19:45:06.869Z,2.59
2023-03-27T19:46:15.901Z,2.58
2023-03-27T19:47:07.968Z,2.59
2023-03-27T19:48:06.942Z,2.49
2023-03-27T19:49:06.901Z,1.79
2023-03-27T19:50:06.869Z,1.75
2023-03-27T19:51:06.866Z,1.90
2023-03-27T19:52:06.863Z,1.79
2023-03-27T19:53:09.028Z,1.53
2023-03-27T19:54:06.897Z,1.14
2023-03-27T19:55:06.950Z,1.60
2023-03-27T19:56:06.978Z,1.82
2023-03-27T19:57:07.237Z,1.78
2023-03-27T19:58:07.080Z,1.90
2023-03-27T19:59:07.703Z,1.10
2023-03-27T20:00:07.157Z,1.37
2023-03-27T20:01:07.280Z,1.67
2023-03-27T20:02:07.254Z,1.32
2023-03-27T20:03:07.412Z,1.13
2023-03-27T20:04:07.351Z,1.35
2023-03-27T20:05:07.384Z,1.46
2023-03-27T20:06:09.116Z,1.15
2023-03-27T20:07:07.433Z,1.49
2023-03-27T20:08:07.414Z,1.21
2023-03-27T20:09:07.428Z,1.72
2023-03-27T20:10:07.422Z,1.78
2023-03-27T20:11:07.458Z,1.60
2023-03-27T20:12:07.423Z,1.92
2023-03-27T20:13:07.382Z,1.59
2023-03-27T20:14:07.394Z,1.83
2023-03-27T20:15:12.124Z,1.83
2023-03-27T20:16:08.413Z,1.65
2023-03-27T20:17:12.317Z,1.79
2023-03-27T20:18:08.409Z,1.84
2023-03-27T20:19:07.368Z,1.85
2023-03-27T20:20:07.360Z,1.75
2023-03-27T20:21:07.341Z,1.55
2023-03-27T20:22:07.333Z,1.66
2023-03-27T20:23:07.344Z,2.23
2023-03-27T20:24:07.348Z,2.38
2023-03-27T20:25:07.318Z,1.98
2023-03-27T20:26:07.313Z,2.24
2023-03-27T20:27:07.326Z,1.86
2023-03-27T20:28:07.336Z,1.81
2023-03-27T20:29:07.300Z,1.90
2023-03-27T20:30:07.308Z,1.85
2023-03-27T20:31:07.312Z,2.20
2023-03-27T20:33:07.333Z,1.88
2023-03-27T20:34:07.271Z,1.26
2023-03-27T20:35:16.488Z,2.08
2023-03-27T20:36:08.368Z,1.56
2023-03-27T20:37:07.302Z,1.70
2023-03-27T20:38:07.302Z,1.62
2023-03-27T20:39:07.292Z,1.63
2023-03-27T20:40:07.297Z,1.35
2023-03-27T20:41:07.284Z,1.90
2023-03-27T20:42:07.291Z,1.76
2023-03-27T20:43:07.285Z,1.27
2023-03-27T20:44:07.277Z,1.64
2023-03-27T20:45:07.259Z,1.75
2023-03-27T20:46:07.271Z,1.22
2023-03-27T20:47:07.590Z,1.77
2023-03-27T20:48:07.298Z,2.27
2023-03-27T20:49:07.335Z,1.57
2023-03-27T20:50:07.371Z,1.94
2023-03-27T20:51:07.431Z,1.88
2023-03-27T20:52:07.463Z,1.53
2023-03-27T20:53:07.511Z,1.25
2023-03-27T20:54:07.563Z,1.15
2023-03-27T20:55:07.631Z,1.08
2023-03-27T20:56:07.860Z,0.91
2023-03-27T20:57:07.894Z,1.20
2023-03-27T20:58:07.776Z,1.47
2023-03-27T20:59:07.838Z,1.00
2023-03-27T21:00:07.898Z,1.37
2023-03-27T21:01:07.894Z,1.74
2023-03-27T21:02:07.889Z,1.35
2023-03-27T21:03:08.411Z,1.57
2023-03-27T21:04:07.889Z,1.44
2023-03-27T21:05:07.921Z,1.49
2023-03-27T21:06:07.987Z,1.61
2023-03-27T21:07:08.017Z,1.45
2023-03-27T21:08:08.069Z,1.34
2023-03-27T21:09:08.111Z,0.97
2023-03-27T21:10:08.171Z,1.10
2023-03-27T21:11:08.241Z,1.72
2023-03-27T21:12:08.270Z,1.64
2023-03-27T21:13:08.332Z,1.49
2023-03-27T21:14:08.312Z,1.26
2023-03-27T21:15:08.321Z,1.51
2023-03-27T21:16:08.418Z,1.58
2023-03-27T21:17:08.402Z,1.36
2023-03-27T21:18:08.497Z,1.49
2023-03-27T21:19:08.499Z,1.19
2023-03-27T21:20:08.564Z,1.79
2023-03-27T21:21:08.608Z,1.26
2023-03-27T21:22:08.702Z,0.83
2023-03-27T21:23:08.717Z,1.03
2023-03-27T21:24:08.770Z,0.94
2023-03-27T21:25:08.831Z,1.57
2023-03-27T21:26:08.880Z,1.69
2023-03-27T21:27:08.934Z,1.96
2023-03-27T21:28:08.962Z,1.99
2023-03-27T21:29:09.046Z,1.27
2023-03-27T21:30:09.074Z,1.02
2023-03-27T21:31:09.140Z,0.92
2023-03-27T21:32:09.274Z,1.04
2023-03-27T21:33:09.247Z,1.11
2023-03-27T21:34:09.293Z,1.34
2023-03-27T21:35:09.348Z,1.06
2023-03-27T21:36:09.521Z,0.85
2023-03-27T21:37:09.480Z,1.05
2023-03-27T21:38:09.503Z,1.04
2023-03-27T21:39:09.565Z,1.02
2023-03-27T21:40:09.616Z,1.24
2023-03-27T21:41:09.655Z,1.54
2023-03-27T21:42:09.712Z,1.31
2023-03-27T21:43:09.780Z,1.07
2023-03-27T21:44:09.811Z,1.41
2023-03-27T21:45:09.895Z,1.72
2023-03-27T21:46:09.990Z,1.44
2023-03-27T21:47:09.986Z,1.81
2023-03-27T21:48:10.087Z,1.77
2023-03-27T21:49:10.114Z,2.35
2023-03-27T21:50:10.165Z,1.66
2023-03-27T21:51:10.201Z,1.35
2023-03-27T21:52:10.270Z,1.44
2023-03-27T21:53:10.306Z,1.24
2023-03-27T21:54:10.359Z,1.38
2023-03-27T21:55:10.440Z,1.20
2023-03-27T21:56:10.469Z,1.34
2023-03-27T21:57:10.582Z,1.96
2023-03-27T21:58:10.577Z,1.85
2023-03-27T21:59:10.640Z,1.70
2023-03-27T22:00:10.687Z,1.80
2023-03-27T22:01:10.773Z,1.91
2023-03-27T22:02:10.790Z,2.53
2023-03-27T22:03:10.842Z,2.06
2023-03-27T22:04:10.948Z,1.55
2023-03-27T22:05:10.943Z,1.47
2023-03-27T22:06:12.931Z,1.95
2023-03-27T22:07:11.034Z,2.09
2023-03-27T22:08:11.097Z,1.45
2023-03-27T22:09:11.155Z,1.76
2023-03-27T22:10:11.213Z,1.45
2023-03-27T22:11:11.269Z,1.81
2023-03-27T22:12:11.292Z,1.55
2023-03-27T22:13:11.347Z,2.00
2023-03-27T22:14:11.421Z,1.65
2023-03-27T22:15:11.471Z,1.39
2023-03-27T22:16:11.632Z,1.80
2023-03-27T22:17:11.575Z,2.20
2023-03-27T22:18:11.658Z,2.27
2023-03-27T22:19:11.689Z,2.06
2023-03-27T22:20:11.730Z,1.02
2023-03-27T22:21:11.801Z,1.33
2023-03-27T22:22:11.838Z,1.33
2023-03-27T22:23:11.916Z,1.39
2023-03-27T22:24:11.961Z,1.26
2023-03-27T22:25:12.008Z,1.34
2023-03-27T22:26:12.074Z,1.54
2023-03-27T22:27:12.110Z,1.75
2023-03-27T22:28:12.168Z,1.69
2023-03-27T22:29:12.227Z,1.58
2023-03-27T22:30:12.288Z,1.89
2023-03-27T22:31:12.481Z,1.45
2023-03-27T22:32:12.395Z,1.88
2023-03-27T22:33:12.455Z,1.61
2023-03-27T22:34:12.494Z,1.86
2023-03-27T22:35:12.552Z,1.72
2023-03-27T22:36:12.615Z,1.61
2023-03-27T22:37:12.644Z,1.67
2023-03-27T22:38:12.713Z,1.90
2023-03-27T22:39:12.765Z,1.70
2023-03-27T22:40:12.802Z,1.23
2023-03-27T22:41:12.867Z,1.18
2023-03-27T22:42:12.914Z,1.04
2023-03-27T22:43:22.926Z,1.74
2023-03-27T22:44:13.970Z,1.35
2023-03-27T22:45:12.970Z,1.15
2023-03-27T22:46:12.972Z,1.32
2023-03-27T22:47:12.947Z,1.66
2023-03-27T22:48:12.929Z,1.21
2023-03-27T22:49:12.919Z,1.46
2023-03-27T22:50:12.933Z,1.48
2023-03-27T22:51:12.934Z,1.24
2023-03-27T22:52:12.925Z,0.97
2023-03-27T22:53:12.902Z,1.53
2023-03-27T22:54:12.942Z,1.84
2023-03-27T22:55:12.973Z,1.47
2023-03-27T22:56:13.036Z,1.70
2023-03-27T22:57:13.097Z,1.41
2023-03-27T22:58:13.162Z,1.36
2023-03-27T22:59:13.214Z,1.68
2023-03-27T23:00:13.264Z,1.61
2023-03-27T23:01:13.320Z,1.73
2023-03-27T23:02:13.454Z,1.50
2023-03-27T23:03:13.509Z,1.71
2023-03-27T23:04:13.496Z,2.14
2023-03-27T23:05:13.544Z,1.66
2023-03-27T23:06:13.612Z,1.64
2023-03-27T23:07:13.657Z,1.64
2023-03-27T23:08:13.829Z,2.08
2023-03-27T23:09:13.759Z,2.34
2023-03-27T23:10:13.816Z,3.02
2023-03-27T23:11:13.923Z,2.43
2023-03-27T23:12:13.943Z,2.57
2023-03-27T23:13:13.986Z,1.89
2023-03-27T23:14:14.052Z,1.15
2023-03-27T23:15:14.122Z,1.58
2023-03-27T23:16:14.211Z,1.69
2023-03-27T23:17:14.298Z,2.09
2023-03-27T23:18:14.252Z,3.02
2023-03-27T23:19:14.313Z,3.07
2023-03-27T23:20:14.384Z,2.27
2023-03-27T23:21:14.441Z,2.17
2023-03-27T23:22:14.501Z,2.12
2023-03-27T23:23:14.555Z,1.79
2023-03-27T23:24:14.613Z,1.16
2023-03-27T23:25:14.683Z,1.34
2023-03-27T23:26:14.742Z,2.23
2023-03-27T23:27:14.789Z,1.70
2023-03-27T23:28:14.844Z,2.35
2023-03-27T23:29:14.901Z,1.86
2023-03-27T23:30:14.953Z,2.39
2023-03-27T23:31:15.062Z,2.13
2023-03-27T23:32:15.078Z,1.69
2023-03-27T23:33:15.136Z,1.50
2023-03-27T23:34:15.192Z,1.88
2023-03-27T23:35:15.259Z,2.25
2023-03-27T23:36:15.345Z,1.91
2023-03-27T23:37:15.370Z,1.85
2023-03-27T23:38:15.413Z,1.80
2023-03-27T23:39:15.479Z,1.92
2023-03-27T23:40:15.537Z,1.65
2023-03-27T23:41:15.594Z,1.89
2023-03-27T23:42:15.647Z,2.09
2023-03-27T23:43:15.692Z,2.24
2023-03-27T23:44:15.760Z,2.68
2023-03-27T23:45:15.823Z,2.08
2023-03-27T23:46:15.970Z,2.11
2023-03-27T23:47:15.924Z,2.23
2023-03-27T23:48:15.980Z,1.39
2023-03-27T23:49:16.048Z,1.54
2023-03-27T23:50:16.099Z,1.45
2023-03-27T23:51:16.187Z,1.41
2023-03-27T23:52:16.230Z,1.62
2023-03-27T23:53:16.267Z,1.73
2023-03-27T23:54:16.348Z,1.78
2023-03-27T23:55:16.402Z,1.98
2023-03-27T23:56:16.451Z,1.36
2023-03-27T23:57:16.550Z,2.16
2023-03-27T23:58:16.590Z,2.25
2023-03-27T23:59:16.630Z,2.24
